sensor_id;sensor_type;location;lat;lon;timestamp;temperature;humidity
58519;DHT22;44310;48.106;12.008;2023-04-30T00:01:03;18.10;93.00
58519;DHT22;44310;48.106;12.008;2023-04-30T00:03:30;17.80;93.00
58519;DHT22;44310;48.106;12.008;2023-04-30T00:05:57;17.80;93.00
58519;DHT22;44310;48.106;12.008;2023-04-30T00:08:24;17.80;92.90
58519;DHT22;44310;48.106;12.008;2023-04-30T00:10:52;17.90;93.00
58519;DHT22;44310;48.106;12.008;2023-04-30T00:13:19;17.90;93.10
58519;DHT22;44310;48.106;12.008;2023-04-30T00:15:47;18.00;93.30
58519;DHT22;44310;48.106;12.008;2023-04-30T00:18:14;17.90;93.30
58519;DHT22;44310;48.106;12.008;2023-04-30T00:20:41;18.00;93.30
58519;DHT22;44310;48.106;12.008;2023-04-30T00:23:08;18.10;93.50
58519;DHT22;44310;48.106;12.008;2023-04-30T00:25:35;18.00;93.60
58519;DHT22;44310;48.106;12.008;2023-04-30T00:28:02;17.90;93.60
58519;DHT22;44310;48.106;12.008;2023-04-30T00:30:29;18.00;93.60
58519;DHT22;44310;48.106;12.008;2023-04-30T00:32:56;18.00;93.50
58519;DHT22;44310;48.106;12.008;2023-04-30T00:35:23;18.00;93.50
58519;DHT22;44310;48.106;12.008;2023-04-30T00:37:50;17.90;93.50
58519;DHT22;44310;48.106;12.008;2023-04-30T00:40:18;17.90;93.50
58519;DHT22;44310;48.106;12.008;2023-04-30T00:42:46;18.00;93.40
58519;DHT22;44310;48.106;12.008;2023-04-30T00:45:14;17.90;93.50
58519;DHT22;44310;48.106;12.008;2023-04-30T00:47:43;17.80;93.50
58519;DHT22;44310;48.106;12.008;2023-04-30T00:50:10;17.80;93.50
58519;DHT22;44310;48.106;12.008;2023-04-30T00:52:42;17.90;93.60
58519;DHT22;44310;48.106;12.008;2023-04-30T00:55:11;17.60;93.60
58519;DHT22;44310;48.106;12.008;2023-04-30T00:57:39;17.90;93.80
58519;DHT22;44310;48.106;12.008;2023-04-30T01:00:09;17.90;93.80
58519;DHT22;44310;48.106;12.008;2023-04-30T01:02:37;17.90;93.70
58519;DHT22;44310;48.106;12.008;2023-04-30T01:05:05;17.90;93.70
58519;DHT22;44310;48.106;12.008;2023-04-30T01:07:36;17.90;93.70
58519;DHT22;44310;48.106;12.008;2023-04-30T01:10:07;17.90;93.70
58519;DHT22;44310;48.106;12.008;2023-04-30T01:15:29;17.90;93.80
58519;DHT22;44310;48.106;12.008;2023-04-30T01:18:04;17.90;94.00
58519;DHT22;44310;48.106;12.008;2023-04-30T01:20:35;17.90;93.70
58519;DHT22;44310;48.106;12.008;2023-04-30T01:24:13;17.90;93.90
58519;DHT22;44310;48.106;12.008;2023-04-30T01:26:19;18.00;94.30
58519;DHT22;44310;48.106;12.008;2023-04-30T01:28:49;18.00;94.40
58519;DHT22;44310;48.106;12.008;2023-04-30T01:31:19;18.10;94.60
58519;DHT22;44310;48.106;12.008;2023-04-30T01:33:46;18.10;94.40
58519;DHT22;44310;48.106;12.008;2023-04-30T01:36:31;18.30;94.30
58519;DHT22;44310;48.106;12.008;2023-04-30T01:39:18;18.00;94.10
58519;DHT22;44310;48.106;12.008;2023-04-30T01:42:02;18.00;94.10
58519;DHT22;44310;48.106;12.008;2023-04-30T01:53:06;17.90;93.80
58519;DHT22;44310;48.106;12.008;2023-04-30T01:55:40;17.90;93.80
58519;DHT22;44310;48.106;12.008;2023-04-30T01:58:14;17.90;93.70
58519;DHT22;44310;48.106;12.008;2023-04-30T02:00:41;17.90;94.10
58519;DHT22;44310;48.106;12.008;2023-04-30T02:03:09;18.00;94.50
58519;DHT22;44310;48.106;12.008;2023-04-30T02:05:36;17.90;94.60
58519;DHT22;44310;48.106;12.008;2023-04-30T02:08:03;18.30;94.80
58519;DHT22;44310;48.106;12.008;2023-04-30T02:10:31;18.10;94.70
58519;DHT22;44310;48.106;12.008;2023-04-30T02:12:58;18.10;94.70
58519;DHT22;44310;48.106;12.008;2023-04-30T02:15:25;18.10;94.90
58519;DHT22;44310;48.106;12.008;2023-04-30T02:17:52;18.10;95.20
58519;DHT22;44310;48.106;12.008;2023-04-30T02:20:19;18.10;95.20
58519;DHT22;44310;48.106;12.008;2023-04-30T02:22:46;18.20;95.30
58519;DHT22;44310;48.106;12.008;2023-04-30T02:25:13;18.20;95.30
58519;DHT22;44310;48.106;12.008;2023-04-30T02:27:40;18.20;95.40
58519;DHT22;44310;48.106;12.008;2023-04-30T02:30:08;18.20;95.50
58519;DHT22;44310;48.106;12.008;2023-04-30T02:32:35;18.20;95.40
58519;DHT22;44310;48.106;12.008;2023-04-30T02:35:02;18.60;95.50
58519;DHT22;44310;48.106;12.008;2023-04-30T02:37:29;18.20;95.40
58519;DHT22;44310;48.106;12.008;2023-04-30T02:39:56;18.20;95.30
58519;DHT22;44310;48.106;12.008;2023-04-30T02:42:24;18.10;95.30
58519;DHT22;44310;48.106;12.008;2023-04-30T02:44:51;18.20;95.30
58519;DHT22;44310;48.106;12.008;2023-04-30T02:47:18;18.10;95.30
58519;DHT22;44310;48.106;12.008;2023-04-30T02:49:45;17.90;95.20
58519;DHT22;44310;48.106;12.008;2023-04-30T02:52:12;18.00;95.10
58519;DHT22;44310;48.106;12.008;2023-04-30T02:54:39;18.00;95.10
58519;DHT22;44310;48.106;12.008;2023-04-30T02:57:06;18.10;95.00
58519;DHT22;44310;48.106;12.008;2023-04-30T02:59:34;18.00;95.00
58519;DHT22;44310;48.106;12.008;2023-04-30T03:02:01;18.00;95.00
58519;DHT22;44310;48.106;12.008;2023-04-30T03:04:28;18.30;95.10
58519;DHT22;44310;48.106;12.008;2023-04-30T03:06:55;18.00;94.90
58519;DHT22;44310;48.106;12.008;2023-04-30T03:09:22;18.00;94.80
58519;DHT22;44310;48.106;12.008;2023-04-30T03:11:49;18.00;94.80
58519;DHT22;44310;48.106;12.008;2023-04-30T03:14:16;17.80;94.70
58519;DHT22;44310;48.106;12.008;2023-04-30T03:16:43;18.00;94.70
58519;DHT22;44310;48.106;12.008;2023-04-30T03:19:10;17.60;94.70
58519;DHT22;44310;48.106;12.008;2023-04-30T03:21:38;18.00;94.90
58519;DHT22;44310;48.106;12.008;2023-04-30T03:24:05;18.00;94.90
58519;DHT22;44310;48.106;12.008;2023-04-30T03:26:32;18.10;95.00
58519;DHT22;44310;48.106;12.008;2023-04-30T03:28:59;18.00;94.90
58519;DHT22;44310;48.106;12.008;2023-04-30T03:31:27;17.90;95.00
58519;DHT22;44310;48.106;12.008;2023-04-30T03:33:55;18.00;95.00
58519;DHT22;44310;48.106;12.008;2023-04-30T03:36:22;18.00;95.20
58519;DHT22;44310;48.106;12.008;2023-04-30T03:38:49;18.00;95.20
58519;DHT22;44310;48.106;12.008;2023-04-30T03:41:17;18.00;95.20
58519;DHT22;44310;48.106;12.008;2023-04-30T03:43:44;18.10;95.20
58519;DHT22;44310;48.106;12.008;2023-04-30T03:46:11;18.10;95.20
58519;DHT22;44310;48.106;12.008;2023-04-30T03:48:38;18.10;95.20
58519;DHT22;44310;48.106;12.008;2023-04-30T03:51:05;17.90;95.20
58519;DHT22;44310;48.106;12.008;2023-04-30T03:53:32;18.00;95.10
58519;DHT22;44310;48.106;12.008;2023-04-30T03:56:00;18.00;95.10
58519;DHT22;44310;48.106;12.008;2023-04-30T03:58:27;18.60;95.20
58519;DHT22;44310;48.106;12.008;2023-04-30T04:00:54;18.00;95.00
58519;DHT22;44310;48.106;12.008;2023-04-30T04:03:21;18.00;95.10
58519;DHT22;44310;48.106;12.008;2023-04-30T04:05:49;18.20;95.10
58519;DHT22;44310;48.106;12.008;2023-04-30T04:08:16;18.10;95.10
58519;DHT22;44310;48.106;12.008;2023-04-30T04:10:43;18.00;95.10
58519;DHT22;44310;48.106;12.008;2023-04-30T04:13:10;18.10;95.10
58519;DHT22;44310;48.106;12.008;2023-04-30T04:15:37;18.10;95.00
58519;DHT22;44310;48.106;12.008;2023-04-30T04:18:05;18.10;95.10
58519;DHT22;44310;48.106;12.008;2023-04-30T04:20:34;18.10;95.10
58519;DHT22;44310;48.106;12.008;2023-04-30T04:23:01;18.10;95.00
58519;DHT22;44310;48.106;12.008;2023-04-30T04:25:28;18.10;95.10
58519;DHT22;44310;48.106;12.008;2023-04-30T04:27:56;18.10;95.10
58519;DHT22;44310;48.106;12.008;2023-04-30T04:30:23;18.10;95.10
58519;DHT22;44310;48.106;12.008;2023-04-30T04:32:50;18.10;95.10
58519;DHT22;44310;48.106;12.008;2023-04-30T04:35:20;18.10;95.10
58519;DHT22;44310;48.106;12.008;2023-04-30T04:37:47;18.10;95.00
58519;DHT22;44310;48.106;12.008;2023-04-30T04:40:15;18.10;95.00
58519;DHT22;44310;48.106;12.008;2023-04-30T04:42:42;18.10;94.90
58519;DHT22;44310;48.106;12.008;2023-04-30T04:45:09;18.00;94.80
58519;DHT22;44310;48.106;12.008;2023-04-30T04:47:36;18.00;94.70
58519;DHT22;44310;48.106;12.008;2023-04-30T04:50:04;18.10;94.70
58519;DHT22;44310;48.106;12.008;2023-04-30T04:52:31;18.00;94.60
58519;DHT22;44310;48.106;12.008;2023-04-30T04:54:58;18.00;94.50
58519;DHT22;44310;48.106;12.008;2023-04-30T04:57:25;18.10;94.50
58519;DHT22;44310;48.106;12.008;2023-04-30T04:59:53;18.10;94.50
58519;DHT22;44310;48.106;12.008;2023-04-30T05:02:20;18.10;94.30
58519;DHT22;44310;48.106;12.008;2023-04-30T05:04:49;18.00;94.20
58519;DHT22;44310;48.106;12.008;2023-04-30T05:07:17;18.30;94.30
58519;DHT22;44310;48.106;12.008;2023-04-30T05:09:45;18.50;94.20
58519;DHT22;44310;48.106;12.008;2023-04-30T05:12:15;18.00;94.00
58519;DHT22;44310;48.106;12.008;2023-04-30T05:14:42;18.00;94.00
58519;DHT22;44310;48.106;12.008;2023-04-30T05:17:09;18.00;93.90
58519;DHT22;44310;48.106;12.008;2023-04-30T05:19:36;18.00;93.80
58519;DHT22;44310;48.106;12.008;2023-04-30T05:22:03;18.00;93.90
58519;DHT22;44310;48.106;12.008;2023-04-30T05:24:31;18.00;93.90
58519;DHT22;44310;48.106;12.008;2023-04-30T05:26:58;18.00;94.00
58519;DHT22;44310;48.106;12.008;2023-04-30T05:29:25;18.00;94.00
58519;DHT22;44310;48.106;12.008;2023-04-30T05:31:52;18.10;94.10
58519;DHT22;44310;48.106;12.008;2023-04-30T05:34:20;18.10;94.10
58519;DHT22;44310;48.106;12.008;2023-04-30T05:36:47;17.40;94.00
58519;DHT22;44310;48.106;12.008;2023-04-30T05:39:14;18.80;94.30
58519;DHT22;44310;48.106;12.008;2023-04-30T05:41:41;18.00;94.20
58519;DHT22;44310;48.106;12.008;2023-04-30T05:44:09;18.00;94.10
58519;DHT22;44310;48.106;12.008;2023-04-30T05:46:36;18.10;94.40
58519;DHT22;44310;48.106;12.008;2023-04-30T05:49:03;18.10;94.10
58519;DHT22;44310;48.106;12.008;2023-04-30T05:51:30;18.10;94.10
58519;DHT22;44310;48.106;12.008;2023-04-30T05:53:58;18.10;94.10
58519;DHT22;44310;48.106;12.008;2023-04-30T05:56:26;18.40;94.20
58519;DHT22;44310;48.106;12.008;2023-04-30T05:58:53;18.10;94.00
58519;DHT22;44310;48.106;12.008;2023-04-30T06:01:20;18.10;93.90
58519;DHT22;44310;48.106;12.008;2023-04-30T06:03:48;18.10;93.90
58519;DHT22;44310;48.106;12.008;2023-04-30T06:06:15;18.50;94.00
58519;DHT22;44310;48.106;12.008;2023-04-30T06:08:42;18.10;93.80
58519;DHT22;44310;48.106;12.008;2023-04-30T06:11:11;18.10;93.70
58519;DHT22;44310;48.106;12.008;2023-04-30T06:13:39;18.00;93.60
58519;DHT22;44310;48.106;12.008;2023-04-30T06:16:06;17.80;93.50
58519;DHT22;44310;48.106;12.008;2023-04-30T06:18:34;18.10;93.50
58519;DHT22;44310;48.106;12.008;2023-04-30T06:21:01;18.00;93.50
58519;DHT22;44310;48.106;12.008;2023-04-30T06:23:28;18.00;93.40
58519;DHT22;44310;48.106;12.008;2023-04-30T06:25:56;18.00;93.40
58519;DHT22;44310;48.106;12.008;2023-04-30T06:28:23;18.00;93.40
58519;DHT22;44310;48.106;12.008;2023-04-30T06:30:50;18.00;93.40
58519;DHT22;44310;48.106;12.008;2023-04-30T06:33:18;18.10;93.50
58519;DHT22;44310;48.106;12.008;2023-04-30T06:35:45;18.00;93.40
58519;DHT22;44310;48.106;12.008;2023-04-30T06:38:15;18.00;93.40
58519;DHT22;44310;48.106;12.008;2023-04-30T06:40:43;17.90;93.30
58519;DHT22;44310;48.106;12.008;2023-04-30T06:43:10;18.00;93.30
58519;DHT22;44310;48.106;12.008;2023-04-30T06:45:38;18.00;93.30
58519;DHT22;44310;48.106;12.008;2023-04-30T06:48:05;18.10;93.40
58519;DHT22;44310;48.106;12.008;2023-04-30T06:50:32;18.00;93.30
58519;DHT22;44310;48.106;12.008;2023-04-30T06:52:59;18.00;93.30
58519;DHT22;44310;48.106;12.008;2023-04-30T06:55:27;18.10;93.30
58519;DHT22;44310;48.106;12.008;2023-04-30T06:57:54;18.00;93.20
58519;DHT22;44310;48.106;12.008;2023-04-30T07:00:23;18.00;93.10
58519;DHT22;44310;48.106;12.008;2023-04-30T07:02:51;18.10;93.10
58519;DHT22;44310;48.106;12.008;2023-04-30T07:05:18;18.00;93.10
58519;DHT22;44310;48.106;12.008;2023-04-30T07:07:45;18.00;93.10
58519;DHT22;44310;48.106;12.008;2023-04-30T07:10:12;18.00;93.00
58519;DHT22;44310;48.106;12.008;2023-04-30T07:12:40;18.00;92.90
58519;DHT22;44310;48.106;12.008;2023-04-30T07:15:07;18.00;92.80
58519;DHT22;44310;48.106;12.008;2023-04-30T07:17:34;18.10;92.80
58519;DHT22;44310;48.106;12.008;2023-04-30T07:20:03;18.10;93.10
58519;DHT22;44310;48.106;12.008;2023-04-30T07:22:30;18.00;92.70
58519;DHT22;44310;48.106;12.008;2023-04-30T07:24:57;18.10;92.00
58519;DHT22;44310;48.106;12.008;2023-04-30T07:27:25;17.30;90.30
58519;DHT22;44310;48.106;12.008;2023-04-30T07:29:53;17.60;90.50
58519;DHT22;44310;48.106;12.008;2023-04-30T07:32:21;17.60;90.50
58519;DHT22;44310;48.106;12.008;2023-04-30T07:34:48;17.40;90.70
58519;DHT22;44310;48.106;12.008;2023-04-30T07:37:15;17.30;90.00
58519;DHT22;44310;48.106;12.008;2023-04-30T07:39:42;17.20;90.00
58519;DHT22;44310;48.106;12.008;2023-04-30T07:42:09;17.20;90.50
58519;DHT22;44310;48.106;12.008;2023-04-30T07:44:36;17.30;90.60
58519;DHT22;44310;48.106;12.008;2023-04-30T07:47:04;18.20;90.90
58519;DHT22;44310;48.106;12.008;2023-04-30T07:49:31;18.10;91.10
58519;DHT22;44310;48.106;12.008;2023-04-30T07:51:58;17.50;91.10
58519;DHT22;44310;48.106;12.008;2023-04-30T07:54:27;17.70;91.50
58519;DHT22;44310;48.106;12.008;2023-04-30T07:56:54;17.10;91.30
58519;DHT22;44310;48.106;12.008;2023-04-30T07:59:26;17.90;91.60
58519;DHT22;44310;48.106;12.008;2023-04-30T08:01:53;17.90;91.70
58519;DHT22;44310;48.106;12.008;2023-04-30T08:04:20;18.00;91.90
58519;DHT22;44310;48.106;12.008;2023-04-30T08:06:47;18.00;92.00
58519;DHT22;44310;48.106;12.008;2023-04-30T08:09:15;18.00;92.00
58519;DHT22;44310;48.106;12.008;2023-04-30T08:11:42;18.10;92.10
58519;DHT22;44310;48.106;12.008;2023-04-30T08:14:09;18.00;92.20
58519;DHT22;44310;48.106;12.008;2023-04-30T08:16:36;18.10;92.40
58519;DHT22;44310;48.106;12.008;2023-04-30T08:19:03;18.10;92.30
58519;DHT22;44310;48.106;12.008;2023-04-30T08:21:31;18.10;92.30
58519;DHT22;44310;48.106;12.008;2023-04-30T08:23:58;18.10;92.10
58519;DHT22;44310;48.106;12.008;2023-04-30T08:26:25;18.00;92.00
58519;DHT22;44310;48.106;12.008;2023-04-30T08:28:52;18.00;92.00
58519;DHT22;44310;48.106;12.008;2023-04-30T08:31:19;17.90;91.90
58519;DHT22;44310;48.106;12.008;2023-04-30T08:33:46;17.90;91.90
58519;DHT22;44310;48.106;12.008;2023-04-30T08:36:14;18.40;92.10
58519;DHT22;44310;48.106;12.008;2023-04-30T08:38:41;17.90;91.90
58519;DHT22;44310;48.106;12.008;2023-04-30T08:41:11;17.90;92.00
58519;DHT22;44310;48.106;12.008;2023-04-30T08:43:39;17.90;92.30
58519;DHT22;44310;48.106;12.008;2023-04-30T08:46:07;18.00;92.60
58519;DHT22;44310;48.106;12.008;2023-04-30T08:48:34;18.10;92.60
58519;DHT22;44310;48.106;12.008;2023-04-30T08:51:02;18.20;92.60
58519;DHT22;44310;48.106;12.008;2023-04-30T08:53:30;18.10;92.60
58519;DHT22;44310;48.106;12.008;2023-04-30T08:56:00;18.10;92.60
58519;DHT22;44310;48.106;12.008;2023-04-30T08:58:27;18.20;92.90
58519;DHT22;44310;48.106;12.008;2023-04-30T09:00:57;17.90;93.00
58519;DHT22;44310;48.106;12.008;2023-04-30T09:03:25;18.20;93.20
58519;DHT22;44310;48.106;12.008;2023-04-30T09:05:54;18.20;93.30
58519;DHT22;44310;48.106;12.008;2023-04-30T09:08:46;18.30;93.40
58519;DHT22;44310;48.106;12.008;2023-04-30T09:11:24;18.20;93.70
58519;DHT22;44310;48.106;12.008;2023-04-30T09:13:54;18.20;93.50
58519;DHT22;44310;48.106;12.008;2023-04-30T09:16:22;18.20;93.60
58519;DHT22;44310;48.106;12.008;2023-04-30T09:18:51;18.30;93.70
58519;DHT22;44310;48.106;12.008;2023-04-30T09:21:31;18.30;93.80
58519;DHT22;44310;48.106;12.008;2023-04-30T09:24:01;18.20;94.10
58519;DHT22;44310;48.106;12.008;2023-04-30T09:26:34;18.20;93.80
58519;DHT22;44310;48.106;12.008;2023-04-30T09:29:02;18.20;93.80
58519;DHT22;44310;48.106;12.008;2023-04-30T09:31:40;18.20;93.80
58519;DHT22;44310;48.106;12.008;2023-04-30T09:34:08;18.20;93.80
58519;DHT22;44310;48.106;12.008;2023-04-30T09:36:35;18.10;93.80
58519;DHT22;44310;48.106;12.008;2023-04-30T09:39:10;18.20;93.80
58519;DHT22;44310;48.106;12.008;2023-04-30T09:41:41;18.20;93.80
58519;DHT22;44310;48.106;12.008;2023-04-30T09:44:34;18.20;93.80
58519;DHT22;44310;48.106;12.008;2023-04-30T09:47:02;18.20;93.80
58519;DHT22;44310;48.106;12.008;2023-04-30T09:49:29;18.20;93.90
58519;DHT22;44310;48.106;12.008;2023-04-30T09:51:58;18.20;93.90
58519;DHT22;44310;48.106;12.008;2023-04-30T09:54:28;18.20;93.90
58519;DHT22;44310;48.106;12.008;2023-04-30T09:56:58;18.20;93.90
58519;DHT22;44310;48.106;12.008;2023-04-30T09:59:33;18.20;93.90
58519;DHT22;44310;48.106;12.008;2023-04-30T10:02:06;18.20;93.90
58519;DHT22;44310;48.106;12.008;2023-04-30T10:04:36;18.20;93.90
58519;DHT22;44310;48.106;12.008;2023-04-30T10:07:12;18.20;93.80
58519;DHT22;44310;48.106;12.008;2023-04-30T10:09:58;17.80;93.70
58519;DHT22;44310;48.106;12.008;2023-04-30T10:12:44;18.20;93.80
58519;DHT22;44310;48.106;12.008;2023-04-30T10:15:19;18.10;93.70
58519;DHT22;44310;48.106;12.008;2023-04-30T10:17:49;18.50;93.80
58519;DHT22;44310;48.106;12.008;2023-04-30T10:20:21;18.10;93.70
58519;DHT22;44310;48.106;12.008;2023-04-30T10:22:49;18.30;93.80
58519;DHT22;44310;48.106;12.008;2023-04-30T10:25:18;18.10;93.60
58519;DHT22;44310;48.106;12.008;2023-04-30T10:27:45;18.10;93.50
58519;DHT22;44310;48.106;12.008;2023-04-30T10:30:13;18.00;93.50
58519;DHT22;44310;48.106;12.008;2023-04-30T10:32:49;18.00;93.40
58519;DHT22;44310;48.106;12.008;2023-04-30T10:35:25;18.00;93.50
58519;DHT22;44310;48.106;12.008;2023-04-30T10:37:58;18.00;93.50
58519;DHT22;44310;48.106;12.008;2023-04-30T10:40:35;18.60;93.80
58519;DHT22;44310;48.106;12.008;2023-04-30T10:43:03;17.90;93.70
58519;DHT22;44310;48.106;12.008;2023-04-30T10:45:34;18.00;94.10
58519;DHT22;44310;48.106;12.008;2023-04-30T10:48:03;18.10;94.10
58519;DHT22;44310;48.106;12.008;2023-04-30T10:50:31;18.10;94.10
58519;DHT22;44310;48.106;12.008;2023-04-30T10:53:02;18.20;94.00
58519;DHT22;44310;48.106;12.008;2023-04-30T10:55:30;18.10;93.90
58519;DHT22;44310;48.106;12.008;2023-04-30T10:57:58;18.20;94.00
58519;DHT22;44310;48.106;12.008;2023-04-30T11:00:27;18.10;93.90
58519;DHT22;44310;48.106;12.008;2023-04-30T11:02:56;18.20;94.00
58519;DHT22;44310;48.106;12.008;2023-04-30T11:05:37;18.20;94.00
58519;DHT22;44310;48.106;12.008;2023-04-30T11:08:05;18.10;93.90
58519;DHT22;44310;48.106;12.008;2023-04-30T11:10:37;18.20;94.00
58519;DHT22;44310;48.106;12.008;2023-04-30T11:13:05;18.20;94.10
58519;DHT22;44310;48.106;12.008;2023-04-30T11:15:40;18.20;94.10
58519;DHT22;44310;48.106;12.008;2023-04-30T11:18:08;18.20;94.00
58519;DHT22;44310;48.106;12.008;2023-04-30T11:20:39;18.20;94.00
58519;DHT22;44310;48.106;12.008;2023-04-30T11:23:11;18.10;94.00
58519;DHT22;44310;48.106;12.008;2023-04-30T11:25:44;18.00;94.00
58519;DHT22;44310;48.106;12.008;2023-04-30T11:30:55;18.20;94.00
58519;DHT22;44310;48.106;12.008;2023-04-30T11:33:25;18.30;94.00
58519;DHT22;44310;48.106;12.008;2023-04-30T11:35:54;18.20;94.00
58519;DHT22;44310;48.106;12.008;2023-04-30T11:38:27;18.20;94.00
58519;DHT22;44310;48.106;12.008;2023-04-30T11:40:58;18.20;93.90
58519;DHT22;44310;48.106;12.008;2023-04-30T11:43:28;18.20;94.00
58519;DHT22;44310;48.106;12.008;2023-04-30T11:46:10;18.30;94.10
58519;DHT22;44310;48.106;12.008;2023-04-30T11:48:39;18.20;94.00
58519;DHT22;44310;48.106;12.008;2023-04-30T11:51:20;18.20;93.80
58519;DHT22;44310;48.106;12.008;2023-04-30T11:53:49;18.20;93.80
58519;DHT22;44310;48.106;12.008;2023-04-30T11:56:21;18.20;93.80
58519;DHT22;44310;48.106;12.008;2023-04-30T11:58:50;18.20;93.80
58519;DHT22;44310;48.106;12.008;2023-04-30T12:01:18;18.20;93.80
58519;DHT22;44310;48.106;12.008;2023-04-30T12:03:48;18.20;93.80
58519;DHT22;44310;48.106;12.008;2023-04-30T12:06:24;18.30;93.80
58519;DHT22;44310;48.106;12.008;2023-04-30T12:08:56;18.10;93.90
58519;DHT22;44310;48.106;12.008;2023-04-30T12:11:27;18.40;93.60
58519;DHT22;44310;48.106;12.008;2023-04-30T12:14:01;18.60;93.70
58519;DHT22;44310;48.106;12.008;2023-04-30T12:16:44;18.20;93.60
58519;DHT22;44310;48.106;12.008;2023-04-30T12:19:11;18.20;93.60
58519;DHT22;44310;48.106;12.008;2023-04-30T12:21:40;18.20;93.50
58519;DHT22;44310;48.106;12.008;2023-04-30T12:24:07;18.30;93.50
58519;DHT22;44310;48.106;12.008;2023-04-30T12:26:37;18.20;93.40
58519;DHT22;44310;48.106;12.008;2023-04-30T12:29:09;18.60;93.50
58519;DHT22;44310;48.106;12.008;2023-04-30T12:31:42;18.20;92.40
58519;DHT22;44310;48.106;12.008;2023-04-30T12:34:11;18.20;87.90
58519;DHT22;44310;48.106;12.008;2023-04-30T12:36:39;17.90;83.40
58519;DHT22;44310;48.106;12.008;2023-04-30T12:39:14;17.80;84.90
58519;DHT22;44310;48.106;12.008;2023-04-30T12:41:47;17.80;85.70
58519;DHT22;44310;48.106;12.008;2023-04-30T12:44:22;17.80;86.30
58519;DHT22;44310;48.106;12.008;2023-04-30T12:46:51;17.80;87.20
58519;DHT22;44310;48.106;12.008;2023-04-30T12:49:27;17.80;88.40
58519;DHT22;44310;48.106;12.008;2023-04-30T12:54:30;17.80;88.30
58519;DHT22;44310;48.106;12.008;2023-04-30T12:57:08;17.80;89.20
58519;DHT22;44310;48.106;12.008;2023-04-30T13:02:23;17.90;88.80
58519;DHT22;44310;48.106;12.008;2023-04-30T13:04:53;18.00;88.70
58519;DHT22;44310;48.106;12.008;2023-04-30T13:07:20;17.90;88.70
58519;DHT22;44310;48.106;12.008;2023-04-30T13:09:47;18.00;89.00
58519;DHT22;44310;48.106;12.008;2023-04-30T13:12:14;18.00;89.00
58519;DHT22;44310;48.106;12.008;2023-04-30T13:14:41;18.00;89.10
58519;DHT22;44310;48.106;12.008;2023-04-30T13:17:08;18.00;89.10
58519;DHT22;44310;48.106;12.008;2023-04-30T13:19:38;18.00;89.00
58519;DHT22;44310;48.106;12.008;2023-04-30T13:22:05;18.00;89.50
58519;DHT22;44310;48.106;12.008;2023-04-30T13:24:32;18.00;88.70
58519;DHT22;44310;48.106;12.008;2023-04-30T13:27:00;18.00;88.50
58519;DHT22;44310;48.106;12.008;2023-04-30T13:29:28;18.00;87.90
58519;DHT22;44310;48.106;12.008;2023-04-30T13:31:55;17.90;88.00
58519;DHT22;44310;48.106;12.008;2023-04-30T13:34:23;17.90;88.10
58519;DHT22;44310;48.106;12.008;2023-04-30T13:36:50;18.00;88.10
58519;DHT22;44310;48.106;12.008;2023-04-30T13:39:19;18.00;87.80
58519;DHT22;44310;48.106;12.008;2023-04-30T13:41:46;18.00;88.10
58519;DHT22;44310;48.106;12.008;2023-04-30T13:44:15;18.00;88.10
58519;DHT22;44310;48.106;12.008;2023-04-30T13:46:43;18.00;88.10
58519;DHT22;44310;48.106;12.008;2023-04-30T13:49:11;18.00;87.60
58519;DHT22;44310;48.106;12.008;2023-04-30T13:51:38;18.30;87.60
58519;DHT22;44310;48.106;12.008;2023-04-30T13:54:05;18.00;87.20
58519;DHT22;44310;48.106;12.008;2023-04-30T13:56:32;17.80;87.00
58519;DHT22;44310;48.106;12.008;2023-04-30T13:58:59;18.00;86.80
58519;DHT22;44310;48.106;12.008;2023-04-30T14:01:27;18.00;86.60
58519;DHT22;44310;48.106;12.008;2023-04-30T14:03:54;18.00;86.40
58519;DHT22;44310;48.106;12.008;2023-04-30T14:06:21;18.00;86.40
58519;DHT22;44310;48.106;12.008;2023-04-30T14:08:48;18.00;85.90
58519;DHT22;44310;48.106;12.008;2023-04-30T14:11:15;17.90;86.10
58519;DHT22;44310;48.106;12.008;2023-04-30T14:13:42;18.00;86.10
58519;DHT22;44310;48.106;12.008;2023-04-30T14:16:10;18.00;85.60
58519;DHT22;44310;48.106;12.008;2023-04-30T14:18:37;18.00;85.20
58519;DHT22;44310;48.106;12.008;2023-04-30T14:21:04;18.00;85.50
58519;DHT22;44310;48.106;12.008;2023-04-30T14:23:31;18.00;85.70
58519;DHT22;44310;48.106;12.008;2023-04-30T14:25:59;18.00;85.80
58519;DHT22;44310;48.106;12.008;2023-04-30T14:28:27;18.00;85.90
58519;DHT22;44310;48.106;12.008;2023-04-30T14:30:54;18.20;86.10
58519;DHT22;44310;48.106;12.008;2023-04-30T14:33:21;18.00;85.80
58519;DHT22;44310;48.106;12.008;2023-04-30T14:35:48;18.00;85.90
58519;DHT22;44310;48.106;12.008;2023-04-30T14:38:15;18.00;85.60
58519;DHT22;44310;48.106;12.008;2023-04-30T14:40:42;18.00;85.80
58519;DHT22;44310;48.106;12.008;2023-04-30T14:43:10;18.10;85.50
58519;DHT22;44310;48.106;12.008;2023-04-30T14:45:37;17.60;85.00
58519;DHT22;44310;48.106;12.008;2023-04-30T14:48:06;18.00;85.20
58519;DHT22;44310;48.106;12.008;2023-04-30T14:50:33;17.90;85.00
58519;DHT22;44310;48.106;12.008;2023-04-30T14:53:00;17.90;84.70
58519;DHT22;44310;48.106;12.008;2023-04-30T14:55:27;17.90;84.70
58519;DHT22;44310;48.106;12.008;2023-04-30T14:57:55;18.00;84.90
58519;DHT22;44310;48.106;12.008;2023-04-30T15:00:22;17.90;84.50
58519;DHT22;44310;48.106;12.008;2023-04-30T15:02:49;17.90;84.40
58519;DHT22;44310;48.106;12.008;2023-04-30T15:05:16;17.90;84.40
58519;DHT22;44310;48.106;12.008;2023-04-30T15:07:43;17.90;84.70
58519;DHT22;44310;48.106;12.008;2023-04-30T15:10:10;17.90;84.60
58519;DHT22;44310;48.106;12.008;2023-04-30T15:12:38;17.90;84.10
58519;DHT22;44310;48.106;12.008;2023-04-30T15:15:06;17.80;84.30
58519;DHT22;44310;48.106;12.008;2023-04-30T15:17:34;17.90;84.30
58519;DHT22;44310;48.106;12.008;2023-04-30T15:20:04;17.80;83.90
58519;DHT22;44310;48.106;12.008;2023-04-30T15:22:31;17.80;83.60
58519;DHT22;44310;48.106;12.008;2023-04-30T15:25:01;17.90;84.00
58519;DHT22;44310;48.106;12.008;2023-04-30T15:27:29;17.90;84.10
58519;DHT22;44310;48.106;12.008;2023-04-30T15:29:59;17.90;83.90
58519;DHT22;44310;48.106;12.008;2023-04-30T15:32:27;17.90;83.60
58519;DHT22;44310;48.106;12.008;2023-04-30T15:34:54;17.90;83.70
58519;DHT22;44310;48.106;12.008;2023-04-30T15:37:21;17.90;83.40
58519;DHT22;44310;48.106;12.008;2023-04-30T15:39:48;17.80;83.50
58519;DHT22;44310;48.106;12.008;2023-04-30T15:42:16;17.90;83.70
58519;DHT22;44310;48.106;12.008;2023-04-30T15:44:43;17.80;83.20